Nearby METAR Reports

 

KDVT - Phoenix/Deer Vly, Arizona, USA
Distance from station: SW 14mi, 22km
Updated: 2020-07-12 08:53
NOT Current
Clear
Clear
 Wind from calm
Wind: Calm
Temperature: 95°F , 35°C
Dew Point: 61°F , 16°C
Humidity: 32%
Barometer: 29.89 inHg , 1012.2 hPa
Clouds: Clear
Visibility: 10 miles , 16 km
2020/07/12 15:53 KDVT 121553Z 00000KT 10SM CLR 35/16 A2989 RMK AO2 SLP091 T03500156
KSDL - Scottsdale, Arizona, USA
Distance from station: S 15mi, 23km
Updated: 2020-07-12 08:53
NOT Current
Clear
Clear
 Wind from varies
Wind: varies 5 mph , 7 km/h
Temperature: 97°F , 36°C
Dew Point: 59°F , 15°C
Humidity: 28%
Barometer: 29.90 inHg , 1012.5 hPa
Clouds: Clear
Visibility: 10 miles , 16 km
2020/07/12 15:53 KSDL 121553Z VRB04KT 10SM CLR 36/15 A2990 RMK AO2 SLP093 T03610150
KFFZ - Mesa/Falcon Fld, Arizona, USA
Distance from station: SSE 27mi, 44km
Updated: 2020-07-12 08:54
Clear
Clear
 Wind from varies
Wind: varies 5 mph , 7 km/h
Temperature: 99°F , 37°C
Dew Point: 57°F , 14°C
Humidity: 25%
Barometer: 29.88 inHg , 1011.9 hPa
Clouds: Clear
Visibility: 10 miles , 16 km
2020/07/12 15:54 KFFZ 121554Z VRB04KT 10SM CLR 37/14 A2988 RMK AO2 SLP089 T03720139
 
KPHX - Phoenix/Sky Hrbr, Arizona, USA
Distance from station: SSW 28mi, 45km
Updated: 2020-07-12 08:51
NOT Current
Mostly cloudy
Mostly cloudy
 Wind from varies
Wind: varies 3 mph , 6 km/h
Temperature: 100°F , 38°C
Dew Point: 57°F , 14°C
Humidity: 24%
Barometer: 29.85 inHg , 1010.8 hPa
Clouds: Mostly cloudy
Visibility: 10 miles , 16 km
Cloud details: Partly cloudy 16000 ft
Partly cloudy 19000 ft
Mostly cloudy 25000 ft
2020/07/12 15:51 KPHX 121551Z VRB03KT 10SM SCT160 SCT190 BKN250 38/14 A2985 RMK AO2 SLP084 T03780144
KLUF - Luke Afb/Glendal, Arizona, USA
Distance from station: SW 34mi, 55km
Updated: 2020-07-12 08:58
Partly cloudy
Partly cloudy
 Wind from S
Wind: S 8 mph , 13 km/h
Temperature: 97°F , 36°C
Dew Point: 59°F , 15°C
Humidity: 28%
Barometer: 29.85 inHg , 1010.8 hPa
Clouds: Partly cloudy
Visibility: 10 miles , 16 km
Cloud details: Few Clouds 18000 ft
Partly cloudy 21000 ft
2020/07/12 15:58 KLUF 121558Z AUTO 17007KT 10SM FEW180 SCT210 36/15 A2985 RMK AO2 SLP091 T03620147 $
KGYR - Goodyear Municip, Arizona, USA
Distance from station: SW 39mi, 63km
Updated: 2020-07-12 08:47
NOT Current
Partly cloudy
Partly cloudy
 Wind from WSW
Wind: WSW 8 mph , 13 km/h
Temperature: 99°F , 37°C
Dew Point: 61°F , 16°C
Humidity: 29%
Barometer: 29.86 inHg , 1011.2 hPa
Clouds: Partly cloudy
Visibility: 10 miles , 16 km
Cloud details: Partly cloudy 17000 ft
Partly cloudy 20000 ft
2020/07/12 15:47 KGYR 121547Z 24007KT 10SM SCT170 SCT200 37/16 A2986
 
KIWA - Chandler/Mesa, Arizona, USA
Distance from station: SSE 39mi, 63km
Updated: 2020-07-12 08:50
NOT Current
Partly cloudy
Partly cloudy
 Wind from S
Wind: S 3 mph , 6 km/h
Temperature: 97°F , 36°C
Dew Point: 59°F , 15°C
Humidity: 28%
Barometer: 29.91 inHg , 1012.9 hPa
Clouds: Partly cloudy
Visibility: 10 miles , 16 km
Cloud details: Partly cloudy 15000 ft
2020/07/12 15:50 KIWA 121550Z 18003KT 10SM SCT150 36/15 A2991
KPAN - Payson, Arizona, USA
Distance from station: NE 44mi, 70km
Updated: 2020-07-12 09:15
Clear
Clear
 Wind from calm
Wind: Calm
Temperature: 91°F , 33°C
Dew Point: 43°F , 6°C
Humidity: 18%
Barometer: 30.22 inHg , 1023.4 hPa
Clouds: Clear
Visibility: 10 miles , 16 km
2020/07/12 16:15 KPAN 121615Z AUTO 00000KT 10SM CLR 33/06 A3022 RMK AO2
KBXK - Buckeye, Arizona, USA
Distance from station: WSW 53mi, 86km
Updated: 2020-07-12 09:15
Clear
Clear
 Wind from S
Wind: S 7 mph , 11 km/h
Temperature: 99°F , 37°C
Dew Point: 57°F , 14°C
Humidity: 25%
Barometer: 29.87 inHg , 1011.5 hPa
Clouds: Clear
Visibility: 10 miles , 16 km
2020/07/12 16:15 KBXK 121615Z AUTO 17006KT 10SM CLR 37/14 A2987 RMK A01
 
KA39 - Maricopa Ak-Chin, Arizona, USA
Distance from station: S 58mi, 94km
Updated: 2020-07-12 09:15
Overcast
Overcast
 Wind from W
Wind: W 6 mph , 9 km/h
Temperature: 100°F , 38°C
Dew Point: 57°F , 14°C
Humidity: 24%
Barometer: 29.92 inHg , 1013.2 hPa
Clouds: Overcast
Visibility: 10 miles , 16 km
Cloud details: Mostly cloudy 10000 ft
Overcast 12000 ft
2020/07/12 16:15 KA39 121615Z AUTO 28005KT 10SM BKN100 OVC120 38/14 A2992 RMK AO2
KPRC - Prescott, Arizona, USA
Distance from station: NNW 64mi, 103km
Updated: 2020-07-12 08:53
NOT Current
Clear
Clear
 Wind from calm
Wind: Calm
Temperature: 88°F , 31°C
Dew Point: 45°F , 7°C
Humidity: 22%
Barometer: 30.20 inHg , 1022.7 hPa
Clouds: Clear
Visibility: 10 miles , 16 km
2020/07/12 15:53 KPRC 121553Z 00000KT 10SM CLR 31/07 A3020 RMK AO2 SLP127 T03060072
KSEZ - Sedona, Arizona, USA
Distance from station: N 71mi, 114km
Updated: 2020-07-12 09:15
Clear
Clear
 Wind from calm
Wind: Calm
Temperature: 86°F , 30°C
Dew Point: 46°F , 8°C
Humidity: 25%
Barometer: 30.19 inHg , 1022.4 hPa
Clouds: Clear
Visibility: 10 miles , 16 km
2020/07/12 16:15 KSEZ 121615Z AUTO 00000KT 10SM CLR 30/08 A3019 RMK AO2
 
KFLG - Flagstaff, Arizona, USA
Distance from station: N 91mi, 147km
Updated: 2020-07-12 08:57
Clear
Clear
 Wind from calm
Wind: Calm
Temperature: 81°F , 27°C
Dew Point: 45°F , 7°C
Humidity: 28%
Barometer: 30.38 inHg , 1028.8 hPa
Clouds: Clear
Visibility: 10 miles , 16 km
2020/07/12 15:57 KFLG 121557Z 00000KT 10SM CLR 27/07 A3038 RMK AO2 SLP156 T02670072 $